sensor_id;sensor_type;location;lat;lon;timestamp;P1;P2;P0
73241;PMS5003;65659;49.234;-2.094;2023-05-07T00:02:06;7;7;
73241;PMS5003;65659;49.234;-2.094;2023-05-07T00:04:32;8;8;
73241;PMS5003;65659;49.234;-2.094;2023-05-07T00:06:58;6;6;
73241;PMS5003;65659;49.234;-2.094;2023-05-07T00:09:23;8;7;
73241;PMS5003;65659;49.234;-2.094;2023-05-07T00:11:49;4;4;
73241;PMS5003;65659;49.234;-2.094;2023-05-07T00:14:15;6;6;
73241;PMS5003;65659;49.234;-2.094;2023-05-07T00:16:41;7;7;
73241;PMS5003;65659;49.234;-2.094;2023-05-07T00:19:06;6;6;
73241;PMS5003;65659;49.234;-2.094;2023-05-07T00:21:32;4;4;
73241;PMS5003;65659;49.234;-2.094;2023-05-07T00:23:58;4;4;
73241;PMS5003;65659;49.234;-2.094;2023-05-07T00:26:24;4;4;
73241;PMS5003;65659;49.234;-2.094;2023-05-07T00:28:50;5;5;
73241;PMS5003;65659;49.234;-2.094;2023-05-07T00:31:15;6;5;
73241;PMS5003;65659;49.234;-2.094;2023-05-07T00:33:41;8;8;
73241;PMS5003;65659;49.234;-2.094;2023-05-07T00:36:06;7;7;
73241;PMS5003;65659;49.234;-2.094;2023-05-07T00:38:32;6;6;
73241;PMS5003;65659;49.234;-2.094;2023-05-07T00:40:57;6;6;
73241;PMS5003;65659;49.234;-2.094;2023-05-07T00:43:23;4;4;
73241;PMS5003;65659;49.234;-2.094;2023-05-07T00:45:53;10;9;
73241;PMS5003;65659;49.234;-2.094;2023-05-07T00:48:13;5;5;
73241;PMS5003;65659;49.234;-2.094;2023-05-07T00:50:39;5;5;
73241;PMS5003;65659;49.234;-2.094;2023-05-07T00:53:05;8;8;
73241;PMS5003;65659;49.234;-2.094;2023-05-07T00:55:30;5;5;
73241;PMS5003;65659;49.234;-2.094;2023-05-07T00:57:56;5;4;
73241;PMS5003;65659;49.234;-2.094;2023-05-07T01:00:21;5;5;
73241;PMS5003;65659;49.234;-2.094;2023-05-07T01:02:46;4;4;
73241;PMS5003;65659;49.234;-2.094;2023-05-07T01:05:12;6;6;
73241;PMS5003;65659;49.234;-2.094;2023-05-07T01:07:37;5;5;
73241;PMS5003;65659;49.234;-2.094;2023-05-07T01:10:03;5;5;
73241;PMS5003;65659;49.234;-2.094;2023-05-07T01:12:28;5;5;
73241;PMS5003;65659;49.234;-2.094;2023-05-07T01:14:53;5;5;
73241;PMS5003;65659;49.234;-2.094;2023-05-07T01:17:19;6;6;
73241;PMS5003;65659;49.234;-2.094;2023-05-07T01:19:44;6;5;
73241;PMS5003;65659;49.234;-2.094;2023-05-07T01:22:10;6;6;
73241;PMS5003;65659;49.234;-2.094;2023-05-07T01:24:35;8;7;
73241;PMS5003;65659;49.234;-2.094;2023-05-07T01:27:00;7;7;
73241;PMS5003;65659;49.234;-2.094;2023-05-07T01:29:26;8;8;
73241;PMS5003;65659;49.234;-2.094;2023-05-07T01:31:52;8;8;
73241;PMS5003;65659;49.234;-2.094;2023-05-07T01:34:17;8;7;
73241;PMS5003;65659;49.234;-2.094;2023-05-07T01:36:43;7;7;
73241;PMS5003;65659;49.234;-2.094;2023-05-07T01:39:08;8;7;
73241;PMS5003;65659;49.234;-2.094;2023-05-07T01:41:33;8;8;
73241;PMS5003;65659;49.234;-2.094;2023-05-07T01:43:58;7;7;
73241;PMS5003;65659;49.234;-2.094;2023-05-07T01:46:24;8;8;
73241;PMS5003;65659;49.234;-2.094;2023-05-07T01:48:50;11;10;
73241;PMS5003;65659;49.234;-2.094;2023-05-07T01:51:16;7;7;
73241;PMS5003;65659;49.234;-2.094;2023-05-07T01:53:41;9;9;
73241;PMS5003;65659;49.234;-2.094;2023-05-07T01:56:06;8;8;
73241;PMS5003;65659;49.234;-2.094;2023-05-07T01:58:31;10;8;
73241;PMS5003;65659;49.234;-2.094;2023-05-07T02:00:57;5;5;
73241;PMS5003;65659;49.234;-2.094;2023-05-07T02:03:23;6;6;
73241;PMS5003;65659;49.234;-2.094;2023-05-07T02:05:49;7;7;
73241;PMS5003;65659;49.234;-2.094;2023-05-07T02:08:14;4;4;
73241;PMS5003;65659;49.234;-2.094;2023-05-07T02:10:39;5;5;
73241;PMS5003;65659;49.234;-2.094;2023-05-07T02:13:05;5;5;
73241;PMS5003;65659;49.234;-2.094;2023-05-07T02:15:31;4;4;
73241;PMS5003;65659;49.234;-2.094;2023-05-07T02:17:58;8;8;
73241;PMS5003;65659;49.234;-2.094;2023-05-07T02:20:22;4;4;
73241;PMS5003;65659;49.234;-2.094;2023-05-07T02:22:47;5;5;
73241;PMS5003;65659;49.234;-2.094;2023-05-07T02:25:12;5;5;
73241;PMS5003;65659;49.234;-2.094;2023-05-07T02:27:37;6;6;
73241;PMS5003;65659;49.234;-2.094;2023-05-07T02:30:04;4;4;
73241;PMS5003;65659;49.234;-2.094;2023-05-07T02:32:28;9;9;
73241;PMS5003;65659;49.234;-2.094;2023-05-07T02:34:53;5;5;
73241;PMS5003;65659;49.234;-2.094;2023-05-07T02:37:19;6;6;
73241;PMS5003;65659;49.234;-2.094;2023-05-07T02:39:44;7;7;
73241;PMS5003;65659;49.234;-2.094;2023-05-07T02:42:10;9;7;
73241;PMS5003;65659;49.234;-2.094;2023-05-07T02:44:35;5;5;
73241;PMS5003;65659;49.234;-2.094;2023-05-07T02:47:01;6;5;
73241;PMS5003;65659;49.234;-2.094;2023-05-07T02:49:26;5;5;
73241;PMS5003;65659;49.234;-2.094;2023-05-07T02:51:52;5;5;
73241;PMS5003;65659;49.234;-2.094;2023-05-07T02:54:17;6;6;
73241;PMS5003;65659;49.234;-2.094;2023-05-07T02:56:42;5;5;
73241;PMS5003;65659;49.234;-2.094;2023-05-07T02:59:07;5;5;
73241;PMS5003;65659;49.234;-2.094;2023-05-07T03:01:33;5;5;
73241;PMS5003;65659;49.234;-2.094;2023-05-07T03:03:58;4;4;
73241;PMS5003;65659;49.234;-2.094;2023-05-07T03:06:24;3;3;
73241;PMS5003;65659;49.234;-2.094;2023-05-07T03:08:50;4;4;
73241;PMS5003;65659;49.234;-2.094;2023-05-07T03:11:15;4;4;
73241;PMS5003;65659;49.234;-2.094;2023-05-07T03:13:41;9;8;
73241;PMS5003;65659;49.234;-2.094;2023-05-07T03:16:06;5;5;
73241;PMS5003;65659;49.234;-2.094;2023-05-07T03:18:32;7;6;
73241;PMS5003;65659;49.234;-2.094;2023-05-07T03:20:57;6;6;
73241;PMS5003;65659;49.234;-2.094;2023-05-07T03:23:23;5;5;
73241;PMS5003;65659;49.234;-2.094;2023-05-07T03:25:48;4;4;
73241;PMS5003;65659;49.234;-2.094;2023-05-07T03:28:14;3;3;
73241;PMS5003;65659;49.234;-2.094;2023-05-07T03:30:39;1;1;
73241;PMS5003;65659;49.234;-2.094;2023-05-07T03:33:04;1;1;
73241;PMS5003;65659;49.234;-2.094;2023-05-07T03:35:30;1;1;
73241;PMS5003;65659;49.234;-2.094;2023-05-07T03:37:55;0;0;
73241;PMS5003;65659;49.234;-2.094;2023-05-07T03:40:20;1;1;
73241;PMS5003;65659;49.234;-2.094;2023-05-07T03:42:46;2;2;
73241;PMS5003;65659;49.234;-2.094;2023-05-07T03:45:11;5;5;
73241;PMS5003;65659;49.234;-2.094;2023-05-07T03:47:37;3;3;
73241;PMS5003;65659;49.234;-2.094;2023-05-07T03:50:03;2;2;
73241;PMS5003;65659;49.234;-2.094;2023-05-07T03:52:28;4;4;
73241;PMS5003;65659;49.234;-2.094;2023-05-07T03:54:53;4;4;
73241;PMS5003;65659;49.234;-2.094;2023-05-07T03:57:19;3;3;
73241;PMS5003;65659;49.234;-2.094;2023-05-07T03:59:44;2;2;
73241;PMS5003;65659;49.234;-2.094;2023-05-07T04:02:10;2;2;
73241;PMS5003;65659;49.234;-2.094;2023-05-07T04:04:35;3;3;
73241;PMS5003;65659;49.234;-2.094;2023-05-07T04:07:00;4;3;
73241;PMS5003;65659;49.234;-2.094;2023-05-07T04:09:25;4;4;
73241;PMS5003;65659;49.234;-2.094;2023-05-07T04:11:51;5;4;
73241;PMS5003;65659;49.234;-2.094;2023-05-07T04:14:16;5;5;
73241;PMS5003;65659;49.234;-2.094;2023-05-07T04:16:42;5;5;
73241;PMS5003;65659;49.234;-2.094;2023-05-07T04:19:07;6;6;
73241;PMS5003;65659;49.234;-2.094;2023-05-07T04:21:33;5;5;
73241;PMS5003;65659;49.234;-2.094;2023-05-07T04:23:58;4;4;
73241;PMS5003;65659;49.234;-2.094;2023-05-07T04:26:24;5;5;
73241;PMS5003;65659;49.234;-2.094;2023-05-07T04:28:49;6;5;
73241;PMS5003;65659;49.234;-2.094;2023-05-07T04:31:14;5;5;
73241;PMS5003;65659;49.234;-2.094;2023-05-07T04:33:40;4;4;
73241;PMS5003;65659;49.234;-2.094;2023-05-07T04:36:06;6;6;
73241;PMS5003;65659;49.234;-2.094;2023-05-07T04:38:31;7;7;
73241;PMS5003;65659;49.234;-2.094;2023-05-07T04:40:57;8;8;
73241;PMS5003;65659;49.234;-2.094;2023-05-07T04:43:22;8;8;
73241;PMS5003;65659;49.234;-2.094;2023-05-07T04:45:49;6;6;
73241;PMS5003;65659;49.234;-2.094;2023-05-07T04:48:13;8;8;
73241;PMS5003;65659;49.234;-2.094;2023-05-07T04:50:39;9;7;
73241;PMS5003;65659;49.234;-2.094;2023-05-07T04:53:04;6;6;
73241;PMS5003;65659;49.234;-2.094;2023-05-07T04:55:30;6;5;
73241;PMS5003;65659;49.234;-2.094;2023-05-07T04:57:55;9;9;
73241;PMS5003;65659;49.234;-2.094;2023-05-07T05:00:21;7;7;
73241;PMS5003;65659;49.234;-2.094;2023-05-07T05:02:46;6;6;
73241;PMS5003;65659;49.234;-2.094;2023-05-07T05:05:11;7;7;
73241;PMS5003;65659;49.234;-2.094;2023-05-07T05:07:37;7;6;
73241;PMS5003;65659;49.234;-2.094;2023-05-07T05:10:04;9;8;
73241;PMS5003;65659;49.234;-2.094;2023-05-07T05:12:29;5;5;
73241;PMS5003;65659;49.234;-2.094;2023-05-07T05:14:54;6;6;
73241;PMS5003;65659;49.234;-2.094;2023-05-07T05:17:19;6;6;
73241;PMS5003;65659;49.234;-2.094;2023-05-07T05:19:45;5;5;
73241;PMS5003;65659;49.234;-2.094;2023-05-07T05:22:10;7;6;
73241;PMS5003;65659;49.234;-2.094;2023-05-07T05:24:36;5;5;
73241;PMS5003;65659;49.234;-2.094;2023-05-07T05:27:01;6;6;
73241;PMS5003;65659;49.234;-2.094;2023-05-07T05:29:27;8;6;
73241;PMS5003;65659;49.234;-2.094;2023-05-07T05:31:52;8;6;
73241;PMS5003;65659;49.234;-2.094;2023-05-07T05:34:18;8;8;
73241;PMS5003;65659;49.234;-2.094;2023-05-07T05:36:43;5;5;
73241;PMS5003;65659;49.234;-2.094;2023-05-07T05:39:09;7;7;
73241;PMS5003;65659;49.234;-2.094;2023-05-07T05:41:34;10;10;
73241;PMS5003;65659;49.234;-2.094;2023-05-07T05:44:00;11;10;
73241;PMS5003;65659;49.234;-2.094;2023-05-07T05:46:25;10;10;
73241;PMS5003;65659;49.234;-2.094;2023-05-07T05:48:51;13;12;
73241;PMS5003;65659;49.234;-2.094;2023-05-07T05:51:17;12;12;
73241;PMS5003;65659;49.234;-2.094;2023-05-07T05:53:42;9;9;
73241;PMS5003;65659;49.234;-2.094;2023-05-07T05:56:07;8;8;
73241;PMS5003;65659;49.234;-2.094;2023-05-07T05:58:32;10;9;
73241;PMS5003;65659;49.234;-2.094;2023-05-07T06:00:58;11;11;
73241;PMS5003;65659;49.234;-2.094;2023-05-07T06:03:23;10;10;
73241;PMS5003;65659;49.234;-2.094;2023-05-07T06:05:49;10;9;
73241;PMS5003;65659;49.234;-2.094;2023-05-07T06:08:14;10;9;
73241;PMS5003;65659;49.234;-2.094;2023-05-07T06:10:40;9;9;
73241;PMS5003;65659;49.234;-2.094;2023-05-07T06:13:05;9;9;
73241;PMS5003;65659;49.234;-2.094;2023-05-07T06:15:31;11;11;
73241;PMS5003;65659;49.234;-2.094;2023-05-07T06:17:56;11;11;
73241;PMS5003;65659;49.234;-2.094;2023-05-07T06:20:22;11;11;
73241;PMS5003;65659;49.234;-2.094;2023-05-07T06:22:47;12;12;
73241;PMS5003;65659;49.234;-2.094;2023-05-07T06:25:13;11;10;
73241;PMS5003;65659;49.234;-2.094;2023-05-07T06:27:38;13;11;
73241;PMS5003;65659;49.234;-2.094;2023-05-07T06:30:05;11;11;
73241;PMS5003;65659;49.234;-2.094;2023-05-07T06:32:29;10;10;
73241;PMS5003;65659;49.234;-2.094;2023-05-07T06:34:55;13;13;
73241;PMS5003;65659;49.234;-2.094;2023-05-07T06:37:20;16;16;
73241;PMS5003;65659;49.234;-2.094;2023-05-07T06:39:45;12;11;
73241;PMS5003;65659;49.234;-2.094;2023-05-07T06:42:11;11;11;
73241;PMS5003;65659;49.234;-2.094;2023-05-07T06:44:37;15;13;
73241;PMS5003;65659;49.234;-2.094;2023-05-07T06:47:04;13;13;
73241;PMS5003;65659;49.234;-2.094;2023-05-07T06:49:28;15;15;
73241;PMS5003;65659;49.234;-2.094;2023-05-07T06:51:54;14;13;
73241;PMS5003;65659;49.234;-2.094;2023-05-07T06:54:19;12;12;
73241;PMS5003;65659;49.234;-2.094;2023-05-07T06:56:44;10;10;
73241;PMS5003;65659;49.234;-2.094;2023-05-07T06:59:10;12;12;
73241;PMS5003;65659;49.234;-2.094;2023-05-07T07:01:35;15;15;
73241;PMS5003;65659;49.234;-2.094;2023-05-07T07:04:01;11;11;
73241;PMS5003;65659;49.234;-2.094;2023-05-07T07:06:26;14;14;
73241;PMS5003;65659;49.234;-2.094;2023-05-07T07:08:52;12;12;
73241;PMS5003;65659;49.234;-2.094;2023-05-07T07:11:18;14;14;
73241;PMS5003;65659;49.234;-2.094;2023-05-07T07:13:44;12;11;
73241;PMS5003;65659;49.234;-2.094;2023-05-07T07:16:09;12;11;
73241;PMS5003;65659;49.234;-2.094;2023-05-07T07:18:35;13;13;
73241;PMS5003;65659;49.234;-2.094;2023-05-07T07:21:01;14;13;
73241;PMS5003;65659;49.234;-2.094;2023-05-07T07:23:26;12;12;
73241;PMS5003;65659;49.234;-2.094;2023-05-07T07:25:52;11;11;
73241;PMS5003;65659;49.234;-2.094;2023-05-07T07:28:20;13;13;
73241;PMS5003;65659;49.234;-2.094;2023-05-07T07:30:43;12;12;
73241;PMS5003;65659;49.234;-2.094;2023-05-07T07:33:08;10;10;
73241;PMS5003;65659;49.234;-2.094;2023-05-07T07:35:34;10;9;
73241;PMS5003;65659;49.234;-2.094;2023-05-07T07:38:00;13;13;
73241;PMS5003;65659;49.234;-2.094;2023-05-07T07:40:26;14;13;
73241;PMS5003;65659;49.234;-2.094;2023-05-07T07:42:51;10;10;
73241;PMS5003;65659;49.234;-2.094;2023-05-07T07:45:17;9;9;
73241;PMS5003;65659;49.234;-2.094;2023-05-07T07:47:42;13;13;
73241;PMS5003;65659;49.234;-2.094;2023-05-07T07:50:07;10;10;
73241;PMS5003;65659;49.234;-2.094;2023-05-07T07:52:33;8;8;
73241;PMS5003;65659;49.234;-2.094;2023-05-07T07:54:58;13;11;
73241;PMS5003;65659;49.234;-2.094;2023-05-07T07:57:24;9;9;
73241;PMS5003;65659;49.234;-2.094;2023-05-07T07:59:49;10;9;
73241;PMS5003;65659;49.234;-2.094;2023-05-07T08:02:15;11;10;
73241;PMS5003;65659;49.234;-2.094;2023-05-07T08:04:40;11;10;
73241;PMS5003;65659;49.234;-2.094;2023-05-07T08:07:06;11;10;
73241;PMS5003;65659;49.234;-2.094;2023-05-07T08:09:31;11;11;
73241;PMS5003;65659;49.234;-2.094;2023-05-07T08:11:57;9;9;
73241;PMS5003;65659;49.234;-2.094;2023-05-07T08:14:22;11;10;
73241;PMS5003;65659;49.234;-2.094;2023-05-07T08:16:48;9;9;
73241;PMS5003;65659;49.234;-2.094;2023-05-07T08:19:14;9;9;
73241;PMS5003;65659;49.234;-2.094;2023-05-07T08:21:39;8;7;
73241;PMS5003;65659;49.234;-2.094;2023-05-07T08:24:05;8;7;
73241;PMS5003;65659;49.234;-2.094;2023-05-07T08:26:31;8;8;
73241;PMS5003;65659;49.234;-2.094;2023-05-07T08:28:57;8;7;
73241;PMS5003;65659;49.234;-2.094;2023-05-07T08:31:22;13;13;
73241;PMS5003;65659;49.234;-2.094;2023-05-07T08:33:48;7;7;
73241;PMS5003;65659;49.234;-2.094;2023-05-07T08:36:14;9;9;
73241;PMS5003;65659;49.234;-2.094;2023-05-07T08:38:39;8;8;
73241;PMS5003;65659;49.234;-2.094;2023-05-07T08:41:05;8;8;
73241;PMS5003;65659;49.234;-2.094;2023-05-07T08:43:31;9;8;
73241;PMS5003;65659;49.234;-2.094;2023-05-07T08:45:57;9;9;
73241;PMS5003;65659;49.234;-2.094;2023-05-07T08:48:24;8;8;
73241;PMS5003;65659;49.234;-2.094;2023-05-07T08:50:48;7;7;
73241;PMS5003;65659;49.234;-2.094;2023-05-07T08:53:14;8;7;
73241;PMS5003;65659;49.234;-2.094;2023-05-07T08:55:40;7;6;
73241;PMS5003;65659;49.234;-2.094;2023-05-07T08:58:05;6;6;
73241;PMS5003;65659;49.234;-2.094;2023-05-07T09:00:31;7;6;
73241;PMS5003;65659;49.234;-2.094;2023-05-07T09:02:57;10;9;
73241;PMS5003;65659;49.234;-2.094;2023-05-07T09:05:23;4;4;
73241;PMS5003;65659;49.234;-2.094;2023-05-07T09:07:48;4;4;
73241;PMS5003;65659;49.234;-2.094;2023-05-07T09:10:14;6;5;
73241;PMS5003;65659;49.234;-2.094;2023-05-07T09:12:40;6;5;
73241;PMS5003;65659;49.234;-2.094;2023-05-07T09:15:06;6;6;
73241;PMS5003;65659;49.234;-2.094;2023-05-07T09:17:32;6;6;
73241;PMS5003;65659;49.234;-2.094;2023-05-07T09:20:01;6;6;
73241;PMS5003;65659;49.234;-2.094;2023-05-07T09:22:23;7;6;
73241;PMS5003;65659;49.234;-2.094;2023-05-07T09:24:48;6;5;
73241;PMS5003;65659;49.234;-2.094;2023-05-07T09:27:14;5;5;
73241;PMS5003;65659;49.234;-2.094;2023-05-07T09:29:40;5;5;
73241;PMS5003;65659;49.234;-2.094;2023-05-07T09:32:06;5;5;
73241;PMS5003;65659;49.234;-2.094;2023-05-07T09:34:32;4;4;
73241;PMS5003;65659;49.234;-2.094;2023-05-07T09:36:58;5;5;
73241;PMS5003;65659;49.234;-2.094;2023-05-07T09:39:23;5;5;
73241;PMS5003;65659;49.234;-2.094;2023-05-07T09:41:49;4;4;
73241;PMS5003;65659;49.234;-2.094;2023-05-07T09:44:14;3;3;
73241;PMS5003;65659;49.234;-2.094;2023-05-07T09:46:41;5;5;
73241;PMS5003;65659;49.234;-2.094;2023-05-07T09:49:06;4;4;
73241;PMS5003;65659;49.234;-2.094;2023-05-07T09:51:34;3;3;
73241;PMS5003;65659;49.234;-2.094;2023-05-07T09:53:57;5;5;
73241;PMS5003;65659;49.234;-2.094;2023-05-07T09:56:23;5;3;
73241;PMS5003;65659;49.234;-2.094;2023-05-07T09:58:49;2;2;
73241;PMS5003;65659;49.234;-2.094;2023-05-07T10:01:15;4;3;
73241;PMS5003;65659;49.234;-2.094;2023-05-07T10:03:41;5;5;
73241;PMS5003;65659;49.234;-2.094;2023-05-07T10:06:06;4;3;
73241;PMS5003;65659;49.234;-2.094;2023-05-07T10:08:31;7;6;
73241;PMS5003;65659;49.234;-2.094;2023-05-07T10:10:56;3;2;
73241;PMS5003;65659;49.234;-2.094;2023-05-07T10:13:22;3;3;
73241;PMS5003;65659;49.234;-2.094;2023-05-07T10:15:48;4;4;
73241;PMS5003;65659;49.234;-2.094;2023-05-07T10:18:14;2;2;
73241;PMS5003;65659;49.234;-2.094;2023-05-07T10:20:40;3;3;
73241;PMS5003;65659;49.234;-2.094;2023-05-07T10:23:05;3;3;
73241;PMS5003;65659;49.234;-2.094;2023-05-07T10:25:32;3;3;
73241;PMS5003;65659;49.234;-2.094;2023-05-07T10:27:58;3;3;
73241;PMS5003;65659;49.234;-2.094;2023-05-07T10:30:25;3;3;
73241;PMS5003;65659;49.234;-2.094;2023-05-07T10:32:48;3;3;
73241;PMS5003;65659;49.234;-2.094;2023-05-07T10:35:15;4;4;
73241;PMS5003;65659;49.234;-2.094;2023-05-07T10:37:40;2;2;
73241;PMS5003;65659;49.234;-2.094;2023-05-07T10:40:06;3;3;
73241;PMS5003;65659;49.234;-2.094;2023-05-07T10:42:31;4;3;
73241;PMS5003;65659;49.234;-2.094;2023-05-07T10:44:57;2;2;
73241;PMS5003;65659;49.234;-2.094;2023-05-07T10:47:23;2;2;
73241;PMS5003;65659;49.234;-2.094;2023-05-07T10:52:15;2;2;
73241;PMS5003;65659;49.234;-2.094;2023-05-07T10:54:40;2;2;
73241;PMS5003;65659;49.234;-2.094;2023-05-07T10:59:33;3;3;
73241;PMS5003;65659;49.234;-2.094;2023-05-07T11:01:57;2;2;
73241;PMS5003;65659;49.234;-2.094;2023-05-07T11:04:23;3;3;
73241;PMS5003;65659;49.234;-2.094;2023-05-07T11:09:14;4;2;
73241;PMS5003;65659;49.234;-2.094;2023-05-07T11:11:44;3;3;
73241;PMS5003;65659;49.234;-2.094;2023-05-07T11:14:06;3;3;
73241;PMS5003;65659;49.234;-2.094;2023-05-07T11:16:31;1;1;
73241;PMS5003;65659;49.234;-2.094;2023-05-07T11:18:57;2;2;
73241;PMS5003;65659;49.234;-2.094;2023-05-07T11:21:32;2;2;
73241;PMS5003;65659;49.234;-2.094;2023-05-07T11:23:57;2;2;
73241;PMS5003;65659;49.234;-2.094;2023-05-07T11:26:14;2;2;
73241;PMS5003;65659;49.234;-2.094;2023-05-07T11:28:41;1;1;
73241;PMS5003;65659;49.234;-2.094;2023-05-07T11:31:06;2;2;
73241;PMS5003;65659;49.234;-2.094;2023-05-07T11:33:32;2;2;
73241;PMS5003;65659;49.234;-2.094;2023-05-07T11:35:57;3;3;
73241;PMS5003;65659;49.234;-2.094;2023-05-07T11:38:23;3;3;
73241;PMS5003;65659;49.234;-2.094;2023-05-07T11:40:49;2;2;
73241;PMS5003;65659;49.234;-2.094;2023-05-07T11:43:14;1;1;
73241;PMS5003;65659;49.234;-2.094;2023-05-07T11:45:40;4;4;
73241;PMS5003;65659;49.234;-2.094;2023-05-07T11:48:05;3;3;
73241;PMS5003;65659;49.234;-2.094;2023-05-07T11:50:31;5;3;
73241;PMS5003;65659;49.234;-2.094;2023-05-07T11:52:57;4;4;
73241;PMS5003;65659;49.234;-2.094;2023-05-07T11:55:24;3;3;
73241;PMS5003;65659;49.234;-2.094;2023-05-07T11:57:48;3;3;
73241;PMS5003;65659;49.234;-2.094;2023-05-07T12:00:15;2;2;
73241;PMS5003;65659;49.234;-2.094;2023-05-07T12:02:40;2;2;
73241;PMS5003;65659;49.234;-2.094;2023-05-07T12:05:06;2;2;
73241;PMS5003;65659;49.234;-2.094;2023-05-07T12:07:33;3;3;
73241;PMS5003;65659;49.234;-2.094;2023-05-07T12:09:57;2;2;
73241;PMS5003;65659;49.234;-2.094;2023-05-07T12:12:22;2;2;
73241;PMS5003;65659;49.234;-2.094;2023-05-07T12:14:48;3;3;
73241;PMS5003;65659;49.234;-2.094;2023-05-07T12:17:13;2;2;
73241;PMS5003;65659;49.234;-2.094;2023-05-07T12:19:40;4;3;
73241;PMS5003;65659;49.234;-2.094;2023-05-07T12:22:05;5;5;
73241;PMS5003;65659;49.234;-2.094;2023-05-07T12:26:56;1;1;
73241;PMS5003;65659;49.234;-2.094;2023-05-07T12:29:22;3;3;
73241;PMS5003;65659;49.234;-2.094;2023-05-07T12:31:48;3;3;
73241;PMS5003;65659;49.234;-2.094;2023-05-07T12:34:14;3;3;
73241;PMS5003;65659;49.234;-2.094;2023-05-07T12:36:39;3;2;
73241;PMS5003;65659;49.234;-2.094;2023-05-07T12:39:05;4;4;
73241;PMS5003;65659;49.234;-2.094;2023-05-07T12:41:34;3;3;
73241;PMS5003;65659;49.234;-2.094;2023-05-07T12:43:57;4;4;
73241;PMS5003;65659;49.234;-2.094;2023-05-07T12:46:22;4;3;
73241;PMS5003;65659;49.234;-2.094;2023-05-07T12:48:48;4;4;
73241;PMS5003;65659;49.234;-2.094;2023-05-07T12:51:14;4;3;
73241;PMS5003;65659;49.234;-2.094;2023-05-07T12:53:39;4;4;
73241;PMS5003;65659;49.234;-2.094;2023-05-07T12:56:05;3;3;
73241;PMS5003;65659;49.234;-2.094;2023-05-07T12:58:33;4;3;
73241;PMS5003;65659;49.234;-2.094;2023-05-07T13:00:57;4;4;
73241;PMS5003;65659;49.234;-2.094;2023-05-07T13:03:23;2;2;
73241;PMS5003;65659;49.234;-2.094;2023-05-07T13:05:48;3;3;
73241;PMS5003;65659;49.234;-2.094;2023-05-07T13:10:39;2;2;
73241;PMS5003;65659;49.234;-2.094;2023-05-07T13:13:05;2;2;
73241;PMS5003;65659;49.234;-2.094;2023-05-07T13:15:31;2;2;
73241;PMS5003;65659;49.234;-2.094;2023-05-07T13:17:56;4;3;
73241;PMS5003;65659;49.234;-2.094;2023-05-07T13:20:22;6;5;
73241;PMS5003;65659;49.234;-2.094;2023-05-07T13:22:48;2;2;
73241;PMS5003;65659;49.234;-2.094;2023-05-07T13:25:14;4;3;
73241;PMS5003;65659;49.234;-2.094;2023-05-07T13:27:39;4;3;
73241;PMS5003;65659;49.234;-2.094;2023-05-07T13:30:05;5;5;
73241;PMS5003;65659;49.234;-2.094;2023-05-07T13:32:31;3;3;
73241;PMS5003;65659;49.234;-2.094;2023-05-07T13:34:56;3;3;
73241;PMS5003;65659;49.234;-2.094;2023-05-07T13:37:22;3;3;
73241;PMS5003;65659;49.234;-2.094;2023-05-07T13:39:48;3;3;
73241;PMS5003;65659;49.234;-2.094;2023-05-07T13:42:14;3;2;
73241;PMS5003;65659;49.234;-2.094;2023-05-07T13:44:39;3;3;
73241;PMS5003;65659;49.234;-2.094;2023-05-07T13:47:05;5;5;
73241;PMS5003;65659;49.234;-2.094;2023-05-07T13:49:31;5;5;
73241;PMS5003;65659;49.234;-2.094;2023-05-07T13:51:56;2;2;
73241;PMS5003;65659;49.234;-2.094;2023-05-07T13:54:22;4;3;
73241;PMS5003;65659;49.234;-2.094;2023-05-07T13:56:48;2;2;
73241;PMS5003;65659;49.234;-2.094;2023-05-07T13:59:14;4;4;
73241;PMS5003;65659;49.234;-2.094;2023-05-07T14:01:40;2;2;
73241;PMS5003;65659;49.234;-2.094;2023-05-07T14:04:05;2;2;
73241;PMS5003;65659;49.234;-2.094;2023-05-07T14:06:31;2;2;
73241;PMS5003;65659;49.234;-2.094;2023-05-07T14:08:57;4;4;
73241;PMS5003;65659;49.234;-2.094;2023-05-07T14:11:22;2;2;
73241;PMS5003;65659;49.234;-2.094;2023-05-07T14:13:48;2;2;
73241;PMS5003;65659;49.234;-2.094;2023-05-07T14:16:14;3;3;
73241;PMS5003;65659;49.234;-2.094;2023-05-07T14:18:39;2;2;
73241;PMS5003;65659;49.234;-2.094;2023-05-07T14:21:05;2;2;
73241;PMS5003;65659;49.234;-2.094;2023-05-07T14:23:31;4;4;
73241;PMS5003;65659;49.234;-2.094;2023-05-07T14:25:56;4;4;
73241;PMS5003;65659;49.234;-2.094;2023-05-07T14:28:21;2;2;
73241;PMS5003;65659;49.234;-2.094;2023-05-07T14:30:47;4;4;
73241;PMS5003;65659;49.234;-2.094;2023-05-07T14:33:13;3;2;
73241;PMS5003;65659;49.234;-2.094;2023-05-07T14:35:39;3;3;
73241;PMS5003;65659;49.234;-2.094;2023-05-07T14:38:09;3;3;
73241;PMS5003;65659;49.234;-2.094;2023-05-07T14:40:30;3;3;
73241;PMS5003;65659;49.234;-2.094;2023-05-07T14:42:55;2;2;
73241;PMS5003;65659;49.234;-2.094;2023-05-07T14:45:21;6;6;
73241;PMS5003;65659;49.234;-2.094;2023-05-07T14:47:47;3;3;
73241;PMS5003;65659;49.234;-2.094;2023-05-07T14:50:12;3;3;
73241;PMS5003;65659;49.234;-2.094;2023-05-07T14:52:38;2;2;
73241;PMS5003;65659;49.234;-2.094;2023-05-07T14:55:05;2;2;
73241;PMS5003;65659;49.234;-2.094;2023-05-07T14:57:29;3;3;
73241;PMS5003;65659;49.234;-2.094;2023-05-07T14:59:55;3;2;
73241;PMS5003;65659;49.234;-2.094;2023-05-07T15:02:21;3;3;
73241;PMS5003;65659;49.234;-2.094;2023-05-07T15:04:46;4;4;
73241;PMS5003;65659;49.234;-2.094;2023-05-07T15:07:12;2;2;
73241;PMS5003;65659;49.234;-2.094;2023-05-07T15:09:38;3;2;
73241;PMS5003;65659;49.234;-2.094;2023-05-07T15:12:04;3;3;
73241;PMS5003;65659;49.234;-2.094;2023-05-07T15:14:29;3;3;
73241;PMS5003;65659;49.234;-2.094;2023-05-07T15:16:55;4;2;
73241;PMS5003;65659;49.234;-2.094;2023-05-07T15:19:21;2;2;
73241;PMS5003;65659;49.234;-2.094;2023-05-07T15:21:47;3;3;
73241;PMS5003;65659;49.234;-2.094;2023-05-07T15:24:12;1;1;
73241;PMS5003;65659;49.234;-2.094;2023-05-07T15:26:38;4;4;
73241;PMS5003;65659;49.234;-2.094;2023-05-07T15:29:04;2;2;
73241;PMS5003;65659;49.234;-2.094;2023-05-07T15:31:29;2;2;
73241;PMS5003;65659;49.234;-2.094;2023-05-07T15:33:55;3;3;
73241;PMS5003;65659;49.234;-2.094;2023-05-07T15:36:21;4;3;
73241;PMS5003;65659;49.234;-2.094;2023-05-07T15:38:46;3;2;
73241;PMS5003;65659;49.234;-2.094;2023-05-07T15:41:12;2;2;
73241;PMS5003;65659;49.234;-2.094;2023-05-07T15:43:42;2;2;
73241;PMS5003;65659;49.234;-2.094;2023-05-07T15:46:04;3;2;
73241;PMS5003;65659;49.234;-2.094;2023-05-07T15:48:29;2;2;
73241;PMS5003;65659;49.234;-2.094;2023-05-07T15:50:55;2;2;
73241;PMS5003;65659;49.234;-2.094;2023-05-07T15:53:21;2;1;
73241;PMS5003;65659;49.234;-2.094;2023-05-07T15:55:47;7;5;
73241;PMS5003;65659;49.234;-2.094;2023-05-07T15:58:12;3;3;
73241;PMS5003;65659;49.234;-2.094;2023-05-07T16:00:38;3;3;
73241;PMS5003;65659;49.234;-2.094;2023-05-07T16:03:09;4;4;
73241;PMS5003;65659;49.234;-2.094;2023-05-07T16:05:30;3;2;
73241;PMS5003;65659;49.234;-2.094;2023-05-07T16:07:55;3;2;
73241;PMS5003;65659;49.234;-2.094;2023-05-07T16:10:21;3;2;
73241;PMS5003;65659;49.234;-2.094;2023-05-07T16:12:46;5;5;
73241;PMS5003;65659;49.234;-2.094;2023-05-07T16:15:12;2;2;
73241;PMS5003;65659;49.234;-2.094;2023-05-07T16:17:38;2;2;
73241;PMS5003;65659;49.234;-2.094;2023-05-07T16:20:05;2;2;
73241;PMS5003;65659;49.234;-2.094;2023-05-07T16:22:30;2;2;
73241;PMS5003;65659;49.234;-2.094;2023-05-07T16:24:55;1;1;
73241;PMS5003;65659;49.234;-2.094;2023-05-07T16:27:21;2;2;
73241;PMS5003;65659;49.234;-2.094;2023-05-07T16:29:47;3;3;